Racecast

Jordan Bunce

Temperance Bedford (MI) · 12 · SECMI D1MONROE · Compare head to head

Athlete rating 115.7 2025 TF season
Best race 140.3 XC
Races 97
Seasons 8 2018 — 2025

RankedNation #28990·MI #1242·MI D1 #726·SEC #72·Team #13 ?

Rating scale ?

Cross Country

2024 XC 125.2

Temperance Bedford (MI) · Grade 12

Date Meet Event Result Place Rating Difficulty PR/SR Flags
2024-11-02 Michigan International Speedway (MIS) 5000m 16:49.8 169th · 4th on team 126.9 +0.022 ★PR ★CR SR CSR
2024-10-26 Lake Erie Metro Park OFFICIAL 5000m 17:24.5 27th · 6th on team 127.2 +0.055
2024-10-17 Hudson Mills Metropark - OFFICIAL 5000m 17:16.6 26th · 5th on team 126.2 +0.036 ★CR CSR
2024-10-12 Munson Park 5000m 17:08.6 8th · 2nd on team 129.3 +0.054 ★CR CSR RSR
2024-09-28 Lake Erie Metro Park OFFICIAL 5000m 17:19.7 12th · 3rd on team 127.8 +0.055 CSR
2024-09-24 Pioneer HS 5000m 17:26 16th · 3rd on team 128.9 +0.067 ★CR CSR RSR
2024-09-21 Ella Sharp Park OFFICIAL 5000m 17:02.5 93rd · 3rd on team 128.3 +0.038 PR ★CR SR CSR RSR
2024-09-10 Willow Metropark OFFICIAL 5000m 17:42.6 27th · 3rd on team 124.8 +0.048 ★CR CSR
2024-09-07 Hedges Boyer Park 5000m 17:19.3 89th · 4th on team 116.8 -0.036 ★CR SR CSR
2024-08-31 BGSU 5000m 17:51.5 37th · 3rd on team 113.0 -0.038 ★CR CSR
2024-08-23 Ford Field/EE Ice Arena(LIVONIA) OFFICIAL 5000m 17:35.4 41st · 3rd on team 128.0 +0.070 ★CR SR CSR RSR

2023 XC 122.0

Temperance Bedford (MI) · Grade 11

Date Meet Event Result Place Rating Difficulty PR/SR Flags
2023-10-28 Lake Erie Metro Park OFFICIAL 5000m 17:28.9 32nd · 5th on team 127.0 +0.055
2023-10-19 Hudson Mills Metropark - OFFICIAL 5000m 18:01.58 7th · 2nd on team 121.0 +0.036 CR CSR
2023-10-14 Munson Park 5000m 18:27.3 16th · 7th on team 121.1 +0.054 CSR
2023-10-07 Portage West MS 5000m 17:33.5 170th · 3rd on team 125.2 +0.038 ★CR CSR
2023-09-30 Lake Erie Metro Park OFFICIAL 5000m 17:17.5 11th · 3rd on team 128.9 +0.055 ★CR CSR RSR
2023-09-27 Saline High School 5000m 17:10.9 36th · 4th on team 127.3 +0.039 PR ★CR SR CSR RSR
2023-09-23 Ella Sharp Park OFFICIAL 5000m 17:39.9 136th · 4th on team 125.0 +0.038 CR CSR RSR
2023-09-16 Ottawa Park Golf Course 5000m 17:37.9 47th · 2nd on team 116.0 -0.030 ★CR SR CSR
2023-09-13 Indian Creek OFFICIAL 5000m 17:53 55th · 6th on team 122.5 +0.039 ★CR SR CSR
2023-09-09 Hedges Boyer Park 5000m 17:57.2 114th · 3rd on team 112.5 -0.036 CR SR CSR
2023-09-02 Forest Creason Golf Course 5000m 18:05.6 43rd · 3rd on team 113.5 -0.032 ★CR SR CSR
2023-08-18 Ford Field/EE Ice Arena(LIVONIA) OFFICIAL 5000m 18:06.3 66th · 5th on team 123.9 +0.070 CR SR CSR RSR

2022 XC 122.0

Temperance Bedford (MI) · Grade 10

Date Meet Event Result Place Rating Difficulty PR/SR Flags
2022-10-29 Milan HS OFFICIAL 5000m 17:34.9 13th · 2nd on team 126.6 +0.054 PR ★CR SR CSR
2022-10-20 Hudson Mills Metropark - OFFICIAL 5000m 18:04.4 44th · 7th on team 120.8 +0.036 CR CSR
2022-10-15 Munson Park 5000m 18:17.2 8th · 3rd on team 122.5 +0.054 CR CSR
2022-10-01 Lake Erie Metro Park OFFICIAL 5000m 17:39.7 22nd · 3rd on team 127.1 +0.055 PR CR SR CSR RSR
2022-09-28 Pioneer HS 5000m 18:10 36th · 3rd on team 123.8 +0.067 CR CSR RSR
2022-09-24 Ella Sharp Park OFFICIAL 5000m 17:41.8 106th · 3rd on team 123.1 +0.038 PR CR SR CSR RSR
2022-09-14 Ella Sharp Park OFFICIAL 5000m 18:31.7 67th · 4th on team 119.7 +0.038 CR CSR
2022-09-10 Hedges Boyer Park 5000m 18:15.2 41st · 3rd on team 112.9 -0.036 PR CR SR CSR
2022-08-19 Ford Field/EE Ice Arena(LIVONIA) OFFICIAL 5000m 18:47.3 75th · 5th on team 121.4 +0.070 CR SR CSR RSR

2021 XC 114.0

Temperance Bedford (MI) · Grade 9

Date Meet Event Result Place Rating Difficulty PR/SR Flags
2021-10-30 Lake Erie Metro Park OFFICIAL 5000m 20:09.4 55th · 7th on team 112.0 +0.055 CR CSR
2021-10-21 Hudson Mills Metropark - OFFICIAL 5000m 18:44.8 27th · 1st on team 119.5 +0.036 PR CR SR CSR
2021-10-16 Munson Park 5000m 20:23.2 10th · 5th on team 111.5 +0.054
2021-09-28 Munson Park 5000m 19:04.3 52nd · 8th on team 119.4 +0.054 CR CSR
2021-09-24 Ella Sharp Park OFFICIAL 5000m 18:56.4 34th · 3rd on team 119.6 +0.038 CR CSR RSR
2021-09-18 Ottawa Park Golf Course 5000m 18:49.7 79th · 7th on team 111.0 -0.030 CR CSR
2021-09-14 Hudson Mills Metropark - OFFICIAL 5000m 19:16.9 85th · 6th on team 116.3 +0.036 CR CSR RSR
2021-09-11 Hedges Boyer Park 5000m 19:00.3 27th · 2nd on team 109.8 -0.036 CR CSR
2021-09-04 BGSU 5000m 18:47.3 69th · 10th on team 110.0 -0.038 PR CR SR CSR
2021-08-28 Walsh Park 5000m 19:23.4 51st · 8th on team 110.7 -0.009 PR ★CR SR CSR RSR

2020 XC 134.9

Temperance Bedford (MI) · Grade 8

Date Meet Event Result Place Rating Difficulty PR/SR Flags
2020-10-14 Indian Creek OFFICIAL 3200m 12:21 7th · 6th on team 137.4 +0.038 SR CSR
2020-10-07 Hudson Mills Metropark - OFFICIAL 3218m 13:26.5 5th · 5th on team 133.3 +0.062 CSR
2020-09-24 Indian Creek OFFICIAL 3200m 12:34 3rd · 3rd on team 137.7 +0.038 SR CSR
2020-09-16 Rolling Hills 3218m 12:59.1 3rd · 3rd on team 140.3 +0.077 ★CR ★R SR CSR RSR
2020-09-09 Indian Creek OFFICIAL 3200m 12:47 5th · 5th on team 132.3 +0.038 SR CSR RSR
2020-08-29 Indian Creek OFFICIAL 3200m 13:23 4th · 4th on team 128.5 +0.038 SR CSR RSR

2019 XC 130.5

Temperance Bedford (MI) · Grade 7

Date Meet Event Result Place Rating Difficulty PR/SR Flags
2019-10-12 Munson Park 3200m 12:47.3 14th · 9th on team 132.7 +0.034 CSR
2019-10-09 Indian Creek OFFICIAL 3200m 12:14 24th · 7th on team 139.5 +0.038 ★PR ★CR R SR CSR RSR
2019-10-05 Munson Park 3218m 12:17.3 6th · 2nd on team 137.6 +0.034 ★CR SR CSR RSR
2019-09-28 Lake Erie Metro Park OFFICIAL 3218m 12:32.4 13th · 4th on team 134.8 +0.034 ★CR SR CSR RSR
2019-09-24 Hudson Mills Metropark - OFFICIAL 3000m 12:19.2 12th · 3rd on team 126.1 +0.001 ★PR ★CR SR CSR
2019-09-21 Maumee Bay State Park 3200m 12:36.1 21st · 3rd on team 126.7 -0.033 ★CR SR CSR RSR
2019-09-07 Hedges Boyer Park 2816m 12:23.4 8th · 1st on team 115.8 ★PR ★CR SR CSR RSR

2018 XC 130.6

Temperance Bedford (MI) · Grade 6

Date Meet Event Result Place Rating Difficulty PR/SR Flags
2018-10-13 Munson Park 3200m 12:45.2 13th · 5th on team 132.0 +0.034 ★CR CSR
2018-10-10 Saline High School 3200m 12:34.8 21st · 4th on team 134.7 +0.016 PR ★CR SR CSR
2018-10-06 Munson Park 3218m 12:47.6 10th · 3rd on team 134.5 +0.034 CR CSR
2018-09-25 Hudson Mills Metropark - OFFICIAL 3218m 13:12.8 17th · 3rd on team 131.9 +0.062 ★CR CSR
2018-09-15 Ottawa Park Golf Course 3200m 12:43.6 4th · 4th on team 125.2 -0.037 PR ★CR SR CSR
2018-09-12 Tecumseh HS 3218m 12:10.1 18th · 5th on team 139.1 +0.036 ★PR ★CR R SR CSR RSR
2018-08-30 Eastwood HS 3200m 13:13 8th · 1st on team 116.9 -0.060 PR ★CR R SR CSR RSR

Track & Field

2025 TF 114.0

Temperance Bedford (MI) · Grade 12

Date Meet Event Result Place Rating Difficulty PR/SR Flags
2025-05-23 2025 MITCA D1 Team State 3200m 10:25.79 21st · 2nd on team 116.0 -0.037 ★PR SR RSR
2025-05-16 MHSAA LP Region 05-1 @ Ypsi Lincoln 1600m 4:52.49 15th · 1st on team 115.7 -0.032
2025-05-08 SEC-HS Championship (Red) (EQ Approved) 1600m 4:51.27 18th · 1st on team 116.0 -0.033 ★PR SR RSR
2025-05-02 Knight (Boys)Relays 2025 3200m 10:26.59 7th · 1st on team 115.0 -0.043
2025-04-29 SEC-HS: Lincoln @ Bedford 1600m 4:53.35 3rd · 2nd on team 115.8 -0.033 PR SR RSR
2025-04-26 2025 April Showers Invitational (EQ Approved) 3200m 10:32.44 12th · 2nd on team 114.9 -0.036
2025-04-22 SEC-HS: Bedford & Pioneer @ Monroe 3200m 10:35.55 5th · 2nd on team 114.9 -0.032
2025-04-19 5th Titan Varsity Invite 3200m 10:26.33 10th · 2nd on team 115.4 -0.042 PR SR RSR
2025-04-15 SEC-HS: Bedford & Dexter @ Skyline 1600m 5:02.84 13th · 2nd on team 112.1 -0.033
2025-04-07 SEC-HS: Huron & Saline @ Bedford 1600m 4:55.67 5th · 3rd on team 113.9 -0.033
2025-04-07 SEC-HS: Huron & Saline @ Bedford 3200m 11:06.9 4th · 2nd on team 109.3 -0.033
2025-03-20 '25 Lincoln Spring Indoor Classic 3200m 10:42.11 3rd · 2nd on team 113.2 -0.035 PR SR
2025-01-11 LAB Indoor Meet #5 1600m 5:02.56 43rd · 1st on team 111.0 -0.035
2024-12-21 LAB Indoor Meet #2 1600m 4:55.4 29th · 1st on team 113.7 -0.035
2024-12-21 LAB Indoor Meet #2 3200m 10:44.91 6th · 1st on team 112.5 -0.035 PR SR
2024-12-14 LAB Indoor Meet #1 1600m 4:54.36 18th · 1st on team 114.1 -0.035 PR SR RSR

2024 TF 108.6

Temperance Bedford (MI) · Grade 11

Date Meet Event Result Place Rating Difficulty PR/SR Flags
2024-05-09 SEC-HS: Championship (Red) 1600m 5:05.61 28th · 3rd on team 110.7 -0.032 PR SR RSR
2024-04-30 SEC-HS: Bedford @ Lincoln 1600m 5:07.58 7th · 5th on team 109.5 -0.032 PR SR RSR
2024-04-30 SEC-HS: Bedford @ Lincoln 3200m 11:08.14 3rd · 3rd on team 109.5 -0.032 RSR
2024-04-25 Knight Classic 2024 JV 3200m 10:57.52 2nd · 2nd on team 109.2 -0.043 PR SR RSR
2024-04-20 Woodhaven Warrior Classic 1600m 5:22.95 23rd · 3rd on team 105.3 -0.029
2024-04-16 SEC-HS: Skyline & Bedford at Dexter 3200m 11:13.3 11th · 5th on team 108.0 -0.036
2024-04-16 SEC-HS: Skyline & Bedford at Dexter 1600m 5:11.56 22nd · 4th on team 107.5 -0.036
2024-04-09 SEC HS: Huron & Saline at Bedford 3200m 11:13 8th · 3rd on team 108.7 -0.033 PR SR RSR
2024-04-09 SEC HS: Huron & Saline at Bedford 1600m 5:10.14 15th · 5th on team 108.8 -0.033 PR SR RSR

2023 TF 105.5

Temperance Bedford (MI) · Grade 10

Date Meet Event Result Place Rating Difficulty PR/SR Flags
2023-05-19 MHSAA LP Region 05-1 @ Saline 3200m 11:20.98 18th · 2nd on team 105.5 -0.042
2023-05-12 SEC-HS: Championship (Red) 3200m 11:15.69 17th · 2nd on team 107.1 -0.036 PR SR RSR
2023-05-02 SEC-HS: Monroe @ Bedford 3200m 11:33.35 6th · 3rd on team 106.7 -0.033 RSR
2023-05-02 SEC-HS: Monroe @ Bedford 1600m 5:24.45 9th · 5th on team 105.5 -0.033 PR SR
2023-04-25 SEC-HS: Bedford & Lincoln @ Skyline hj NM -0.033
2023-04-18 SEC-HS: Huron & Bedford @ Saline hj NH -0.042
2023-04-18 SEC-HS: Huron & Bedford @ Saline 3200m 11:24.06 12th · 3rd on team 106.3 -0.042 PR SR RSR
2023-04-15 Monroe Jefferson 9/10 Invitational hj 4' 10 -0.027
2023-04-10 SEC-HS: Pioneer & Dexter @ Bedford 1600m 5:26.75 27th · 5th on team 102.6 -0.033 PR SR
2023-03-23 '23 SEC Invite 3200m 11:31.6 15th · 2nd on team 105.0 -0.035 PR SR RSR